TimeCDT,TemperatureF,Dew PointF,Humidity,Sea Level PressureIn,VisibilityMPH,Wind Direction,Wind SpeedMPH,Gust SpeedMPH,PrecipitationIn,Events,Conditions,WindDirDegrees,DateUTC
12:52 AM,69.1,62.1,78,29.86,10.0,South,10.4,-,N/A,,Partly Cloudy,170,2013-10-04 05:52:00
1:39 AM,69.8,62.6,78,29.89,10.0,SW,18.4,25.3,N/A,,Overcast,220,2013-10-04 06:39:00
1:49 AM,69.8,62.6,78,29.87,10.0,South,17.3,24.2,N/A,,Mostly Cloudy,190,2013-10-04 06:49:00
1:52 AM,69.1,63.0,81,29.85,10.0,South,15.0,24.2,N/A,,Scattered Clouds,190,2013-10-04 06:52:00
2:52 AM,68.0,62.1,81,29.86,10.0,SW,5.8,-,0.00,,Partly Cloudy,220,2013-10-04 07:52:00
3:52 AM,63.0,61.0,93,29.88,10.0,Calm,Calm,-,N/A,,Clear,0,2013-10-04 08:52:00
4:52 AM,64.9,63.0,93,29.89,10.0,SE,5.8,-,N/A,,Partly Cloudy,140,2013-10-04 09:52:00
5:25 AM,68.0,64.4,88,29.91,9.0,South,4.6,-,N/A,,Mostly Cloudy,180,2013-10-04 10:25:00
5:39 AM,68.0,64.4,88,29.91,8.0,South,4.6,-,N/A,,Scattered Clouds,180,2013-10-04 10:39:00
5:52 AM,66.9,64.9,93,29.89,8.0,SSE,4.6,-,N/A,,Partly Cloudy,160,2013-10-04 10:52:00
6:18 AM,64.4,62.6,94,29.92,6.0,Calm,Calm,-,N/A,,Scattered Clouds,0,2013-10-04 11:18:00
6:30 AM,66.2,64.4,94,29.93,6.0,Calm,Calm,-,N/A,,Mostly Cloudy,0,2013-10-04 11:30:00
6:52 AM,66.0,64.0,93,29.92,6.0,North,6.9,-,N/A,,Overcast,10,2013-10-04 11:52:00
7:17 AM,66.2,64.4,94,29.93,6.0,NE,5.8,-,N/A,Thunderstorm,Overcast,40,2013-10-04 12:17:00
7:32 AM,66.2,64.4,94,29.94,6.0,NNW,8.1,-,N/A,,Overcast,340,2013-10-04 12:32:00
7:49 AM,66.2,62.6,88,29.94,2.5,NNE,12.7,-,0.01,Rain,Light Rain,30,2013-10-04 12:49:00
7:52 AM,66.0,62.1,87,29.94,1.8,NNE,10.4,-,0.01,Rain,Light Rain,30,2013-10-04 12:52:00
8:07 AM,66.2,62.6,88,29.94,3.0,ENE,10.4,-,0.01,Rain,Light Rain,60,2013-10-04 13:07:00
8:52 AM,66.9,64.9,93,29.92,7.0,ESE,8.1,-,0.01,,Overcast,110,2013-10-04 13:52:00
9:40 AM,69.8,66.2,88,29.94,4.0,SE,6.9,-,N/A,,Overcast,130,2013-10-04 14:40:00
9:52 AM,69.1,66.0,90,29.92,4.0,SE,9.2,-,N/A,,Overcast,130,2013-10-04 14:52:00
10:00 AM,69.8,66.2,88,29.93,2.5,SE,9.2,-,N/A,,Overcast,140,2013-10-04 15:00:00
10:26 AM,69.8,66.2,88,29.94,2.5,SSE,6.9,-,N/A,,Overcast,160,2013-10-04 15:26:00
10:52 AM,69.1,66.9,93,29.94,2.5,South,4.6,-,N/A,,Overcast,170,2013-10-04 15:52:00
11:01 AM,69.8,66.2,88,29.95,3.0,South,3.5,-,N/A,,Overcast,180,2013-10-04 16:01:00
11:10 AM,69.8,66.2,88,29.96,3.0,Calm,Calm,-,N/A,,Overcast,0,2013-10-04 16:10:00
11:37 AM,69.8,66.2,88,29.96,3.0,SE,4.6,-,N/A,Thunderstorm,Overcast,130,2013-10-04 16:37:00
11:52 AM,70.0,66.9,90,29.95,3.0,ESE,4.6,-,N/A,Thunderstorm,Overcast,120,2013-10-04 16:52:00
12:12 PM,69.8,68.0,94,29.99,1.8,Calm,Calm,-,0.01,Rain-Thunderstorm,Thunderstorms and Rain,0,2013-10-04 17:12:00
12:17 PM,69.8,66.2,88,30.01,0.5,WSW,6.9,-,0.14,Fog-Rain-Thunderstorm,Heavy Thunderstorms and Rain,240,2013-10-04 17:17:00
12:25 PM,69.8,66.2,88,29.97,0.2,North,5.8,-,0.25,Fog-Rain-Thunderstorm,Heavy Thunderstorms and Rain,360,2013-10-04 17:25:00
12:30 PM,69.8,66.2,88,29.97,1.0,NNW,3.5,-,0.26,Rain-Thunderstorm,Thunderstorms and Rain,340,2013-10-04 17:30:00
12:33 PM,69.8,66.2,88,29.97,2.0,Calm,Calm,-,0.26,Rain-Thunderstorm,Light Thunderstorms and Rain,0,2013-10-04 17:33:00
12:41 PM,69.8,66.2,88,29.96,7.0,East,3.5,-,0.26,Rain-Thunderstorm,Light Thunderstorms and Rain,100,2013-10-04 17:41:00
12:52 PM,72.0,64.9,78,29.93,10.0,NE,3.5,-,0.26,Thunderstorm,Mostly Cloudy,50,2013-10-04 17:52:00
12:59 PM,71.6,66.2,83,29.94,10.0,Calm,Calm,-,N/A,,Scattered Clouds,0,2013-10-04 17:59:00
1:52 PM,73.9,66.0,76,29.90,10.0,SE,10.4,-,N/A,,Clear,140,2013-10-04 18:52:00
2:52 PM,75.9,66.0,71,29.89,10.0,SE,8.1,-,N/A,,Clear,140,2013-10-04 19:52:00
3:52 PM,80.1,68.0,67,29.88,10.0,SE,8.1,-,N/A,,Clear,140,2013-10-04 20:52:00
4:52 PM,77.0,66.0,69,29.87,10.0,ESE,8.1,-,N/A,,Clear,120,2013-10-04 21:52:00
5:52 PM,75.0,66.9,76,29.86,10.0,ESE,8.1,-,N/A,,Clear,120,2013-10-04 22:52:00
6:52 PM,73.0,64.9,76,29.86,10.0,ESE,11.5,-,N/A,,Clear,120,2013-10-04 23:52:00
7:52 PM,73.9,66.0,76,29.86,10.0,SE,9.2,-,N/A,,Clear,140,2013-10-05 00:52:00
9:52 PM,75.0,64.9,71,29.86,10.0,SSE,10.4,-,N/A,,Clear,150,2013-10-05 02:52:00
10:52 PM,75.9,64.9,69,29.87,10.0,South,11.5,-,N/A,,Clear,180,2013-10-05 03:52:00
11:52 PM,75.0,64.9,71,29.87,10.0,South,11.5,-,N/A,,Clear,180,2013-10-05 04:52:00